sensor_id;sensor_type;location;lat;lon;timestamp;pressure;altitude;pressure_sealevel;temperature;humidity
4814;BME280;15375;48.540;9.268;2023-01-31T00:01:36;98220.09;;;1.89;100.00
4814;BME280;15375;48.540;9.268;2023-01-31T00:04:05;98252.13;;;2.07;100.00
4814;BME280;15375;48.540;9.268;2023-01-31T00:06:36;98257.84;;;2.17;100.00
4814;BME280;15375;48.540;9.268;2023-01-31T00:09:04;98257.50;;;2.19;100.00
4814;BME280;15375;48.540;9.268;2023-01-31T00:11:30;98264.81;;;2.18;100.00
4814;BME280;15375;48.540;9.268;2023-01-31T00:13:57;98232.66;;;1.98;100.00
4814;BME280;15375;48.540;9.268;2023-01-31T00:16:24;98252.25;;;2.10;100.00
4814;BME280;15375;48.540;9.268;2023-01-31T00:18:49;98236.47;;;1.97;100.00
4814;BME280;15375;48.540;9.268;2023-01-31T00:21:17;98246.53;;;2.12;100.00
4814;BME280;15375;48.540;9.268;2023-01-31T00:23:43;98237.81;;;2.03;100.00
4814;BME280;15375;48.540;9.268;2023-01-31T00:26:28;98234.44;;;2.06;100.00
4814;BME280;15375;48.540;9.268;2023-01-31T00:28:55;98163.34;;;1.55;100.00
4814;BME280;15375;48.540;9.268;2023-01-31T00:31:22;98246.88;;;2.10;100.00
4814;BME280;15375;48.540;9.268;2023-01-31T00:33:50;98238.56;;;2.15;100.00
4814;BME280;15375;48.540;9.268;2023-01-31T00:36:21;98245.66;;;2.08;100.00
4814;BME280;15375;48.540;9.268;2023-01-31T00:38:48;98231.31;;;2.04;100.00
4814;BME280;15375;48.540;9.268;2023-01-31T00:41:14;98215.88;;;1.88;100.00
4814;BME280;15375;48.540;9.268;2023-01-31T00:43:39;98244.75;;;2.04;100.00
4814;BME280;15375;48.540;9.268;2023-01-31T00:46:05;98204.44;;;1.79;100.00
4814;BME280;15375;48.540;9.268;2023-01-31T00:48:30;98232.88;;;1.92;100.00
4814;BME280;15375;48.540;9.268;2023-01-31T00:50:56;98249.69;;;2.02;100.00
4814;BME280;15375;48.540;9.268;2023-01-31T00:53:21;98206.81;;;1.81;100.00
4814;BME280;15375;48.540;9.268;2023-01-31T00:56:00;98227.28;;;1.98;100.00
4814;BME280;15375;48.540;9.268;2023-01-31T00:58:26;98226.16;;;1.99;100.00
4814;BME280;15375;48.540;9.268;2023-01-31T01:00:51;98229.28;;;2.01;100.00
4814;BME280;15375;48.540;9.268;2023-01-31T01:03:17;98231.06;;;1.97;100.00
4814;BME280;15375;48.540;9.268;2023-01-31T01:05:42;98247.97;;;2.09;100.00
4814;BME280;15375;48.540;9.268;2023-01-31T01:08:08;98258.31;;;2.07;100.00
4814;BME280;15375;48.540;9.268;2023-01-31T01:10:34;98254.16;;;2.10;100.00
4814;BME280;15375;48.540;9.268;2023-01-31T01:13:00;98221.81;;;1.82;100.00
4814;BME280;15375;48.540;9.268;2023-01-31T01:15:25;98244.75;;;1.91;100.00
4814;BME280;15375;48.540;9.268;2023-01-31T01:17:51;98208.28;;;1.54;100.00
4814;BME280;15375;48.540;9.268;2023-01-31T01:20:16;98220.91;;;1.54;100.00
4814;BME280;15375;48.540;9.268;2023-01-31T01:22:41;98232.69;;;1.49;100.00
4814;BME280;15375;48.540;9.268;2023-01-31T01:25:08;98242.34;;;1.50;100.00
4814;BME280;15375;48.540;9.268;2023-01-31T01:27:33;98242.09;;;1.43;100.00
4814;BME280;15375;48.540;9.268;2023-01-31T01:29:59;98229.88;;;1.34;100.00
4814;BME280;15375;48.540;9.268;2023-01-31T01:32:26;98264.28;;;1.52;100.00
4814;BME280;15375;48.540;9.268;2023-01-31T01:34:52;98234.72;;;1.28;100.00
4814;BME280;15375;48.540;9.268;2023-01-31T01:37:17;98233.34;;;1.22;100.00
4814;BME280;15375;48.540;9.268;2023-01-31T01:39:49;98270.66;;;1.36;100.00
4814;BME280;15375;48.540;9.268;2023-01-31T01:42:20;98262.69;;;1.27;100.00
4814;BME280;15375;48.540;9.268;2023-01-31T01:44:54;98233.91;;;1.15;100.00
4814;BME280;15375;48.540;9.268;2023-01-31T01:47:29;98218.97;;;1.06;100.00
4814;BME280;15375;48.540;9.268;2023-01-31T01:50:01;98237.34;;;1.16;100.00
4814;BME280;15375;48.540;9.268;2023-01-31T01:52:43;98215.06;;;1.03;100.00
4814;BME280;15375;48.540;9.268;2023-01-31T01:55:24;98227.81;;;1.06;100.00
4814;BME280;15375;48.540;9.268;2023-01-31T01:57:55;98228.38;;;1.00;100.00
4814;BME280;15375;48.540;9.268;2023-01-31T02:00:26;98210.00;;;0.90;100.00
4814;BME280;15375;48.540;9.268;2023-01-31T02:02:55;98201.72;;;0.83;100.00
4814;BME280;15375;48.540;9.268;2023-01-31T02:05:30;98202.25;;;0.76;100.00
4814;BME280;15375;48.540;9.268;2023-01-31T02:07:56;98231.53;;;1.02;100.00
4814;BME280;15375;48.540;9.268;2023-01-31T02:10:39;98260.56;;;1.20;100.00
4814;BME280;15375;48.540;9.268;2023-01-31T02:13:07;98240.47;;;1.06;100.00
4814;BME280;15375;48.540;9.268;2023-01-31T02:15:33;98252.38;;;1.17;100.00
4814;BME280;15375;48.540;9.268;2023-01-31T02:17:59;98245.88;;;1.18;100.00
4814;BME280;15375;48.540;9.268;2023-01-31T02:29:08;98254.63;;;1.39;100.00
4814;BME280;15375;48.540;9.268;2023-01-31T02:38:12;98244.78;;;1.43;100.00
4814;BME280;15375;48.540;9.268;2023-01-31T02:41:04;98256.44;;;1.47;100.00
4814;BME280;15375;48.540;9.268;2023-01-31T02:43:50;98266.53;;;1.50;100.00
4814;BME280;15375;48.540;9.268;2023-01-31T02:47:05;98240.97;;;1.44;100.00
4814;BME280;15375;48.540;9.268;2023-01-31T02:49:46;98245.34;;;1.37;100.00
4814;BME280;15375;48.540;9.268;2023-01-31T02:54:55;98274.91;;;1.37;100.00
4814;BME280;15375;48.540;9.268;2023-01-31T02:57:42;98278.38;;;1.37;100.00
4814;BME280;15375;48.540;9.268;2023-01-31T03:00:09;98268.84;;;1.27;100.00
4814;BME280;15375;48.540;9.268;2023-01-31T03:02:34;98262.78;;;1.18;100.00
4814;BME280;15375;48.540;9.268;2023-01-31T03:05:00;98264.13;;;1.12;100.00
4814;BME280;15375;48.540;9.268;2023-01-31T03:07:29;98285.06;;;1.31;100.00
4814;BME280;15375;48.540;9.268;2023-01-31T03:15:32;98289.78;;;1.34;100.00
4814;BME280;15375;48.540;9.268;2023-01-31T03:18:23;98271.84;;;1.26;100.00
4814;BME280;15375;48.540;9.268;2023-01-31T03:21:10;98274.09;;;1.24;100.00
4814;BME280;15375;48.540;9.268;2023-01-31T03:23:37;98272.88;;;1.21;100.00
4814;BME280;15375;48.540;9.268;2023-01-31T03:26:05;98282.28;;;1.27;100.00
4814;BME280;15375;48.540;9.268;2023-01-31T03:28:34;98273.44;;;1.27;100.00
4814;BME280;15375;48.540;9.268;2023-01-31T03:31:40;98278.81;;;1.27;100.00
4814;BME280;15375;48.540;9.268;2023-01-31T03:34:08;98270.41;;;1.28;100.00
4814;BME280;15375;48.540;9.268;2023-01-31T03:39:24;98285.06;;;1.19;100.00
4814;BME280;15375;48.540;9.268;2023-01-31T03:42:00;98268.91;;;1.07;100.00
4814;BME280;15375;48.540;9.268;2023-01-31T03:44:56;98298.19;;;1.20;100.00
4814;BME280;15375;48.540;9.268;2023-01-31T03:47:36;98281.44;;;1.03;100.00
4814;BME280;15375;48.540;9.268;2023-01-31T03:50:07;98287.94;;;1.02;100.00
4814;BME280;15375;48.540;9.268;2023-01-31T03:52:40;98306.31;;;1.12;100.00
4814;BME280;15375;48.540;9.268;2023-01-31T03:55:14;98277.38;;;0.85;100.00
4814;BME280;15375;48.540;9.268;2023-01-31T03:57:41;98281.94;;;0.84;100.00
4814;BME280;15375;48.540;9.268;2023-01-31T04:00:13;98266.09;;;0.71;100.00
4814;BME280;15375;48.540;9.268;2023-01-31T04:02:39;98284.69;;;0.76;100.00
4814;BME280;15375;48.540;9.268;2023-01-31T04:05:15;98294.25;;;0.85;100.00
4814;BME280;15375;48.540;9.268;2023-01-31T04:07:42;98296.88;;;0.73;100.00
4814;BME280;15375;48.540;9.268;2023-01-31T04:10:18;98279.94;;;0.60;100.00
4814;BME280;15375;48.540;9.268;2023-01-31T04:12:45;98265.75;;;0.39;100.00
4814;BME280;15375;48.540;9.268;2023-01-31T04:15:11;98283.56;;;0.44;100.00
4814;BME280;15375;48.540;9.268;2023-01-31T04:17:36;98267.72;;;0.30;100.00
4814;BME280;15375;48.540;9.268;2023-01-31T04:20:03;98295.97;;;0.48;100.00
4814;BME280;15375;48.540;9.268;2023-01-31T04:22:30;98305.16;;;0.47;100.00
4814;BME280;15375;48.540;9.268;2023-01-31T04:24:55;98282.84;;;0.35;100.00
4814;BME280;15375;48.540;9.268;2023-01-31T04:27:20;98306.91;;;0.43;100.00
4814;BME280;15375;48.540;9.268;2023-01-31T04:29:45;98308.69;;;0.39;100.00
4814;BME280;15375;48.540;9.268;2023-01-31T04:32:11;98327.28;;;0.44;100.00
4814;BME280;15375;48.540;9.268;2023-01-31T04:34:36;98306.84;;;0.31;100.00
4814;BME280;15375;48.540;9.268;2023-01-31T04:37:02;98300.59;;;0.27;100.00
4814;BME280;15375;48.540;9.268;2023-01-31T04:39:27;98297.41;;;0.25;100.00
4814;BME280;15375;48.540;9.268;2023-01-31T04:41:52;98290.34;;;0.21;100.00
4814;BME280;15375;48.540;9.268;2023-01-31T04:44:18;98319.09;;;0.41;100.00
4814;BME280;15375;48.540;9.268;2023-01-31T04:46:43;98324.41;;;0.49;100.00
4814;BME280;15375;48.540;9.268;2023-01-31T04:49:11;98302.88;;;0.37;100.00
4814;BME280;15375;48.540;9.268;2023-01-31T04:51:36;98318.69;;;0.51;100.00
4814;BME280;15375;48.540;9.268;2023-01-31T04:54:02;98293.63;;;0.26;100.00
4814;BME280;15375;48.540;9.268;2023-01-31T04:56:27;98290.34;;;0.21;100.00
4814;BME280;15375;48.540;9.268;2023-01-31T04:58:52;98306.31;;;0.38;100.00
4814;BME280;15375;48.540;9.268;2023-01-31T05:01:18;98294.44;;;0.27;100.00
4814;BME280;15375;48.540;9.268;2023-01-31T05:03:43;98243.50;;;-0.03;100.00
4814;BME280;15375;48.540;9.268;2023-01-31T05:06:08;98299.72;;;0.35;100.00
4814;BME280;15375;48.540;9.268;2023-01-31T05:08:34;98306.84;;;0.31;100.00
4814;BME280;15375;48.540;9.268;2023-01-31T05:11:01;98329.88;;;0.53;100.00
4814;BME280;15375;48.540;9.268;2023-01-31T05:13:27;98328.44;;;0.55;100.00
4814;BME280;15375;48.540;9.268;2023-01-31T05:15:56;98303.63;;;0.38;100.00
4814;BME280;15375;48.540;9.268;2023-01-31T05:18:25;98301.25;;;0.45;100.00
4814;BME280;15375;48.540;9.268;2023-01-31T05:20:51;98297.31;;;0.42;100.00
4814;BME280;15375;48.540;9.268;2023-01-31T05:23:17;98323.81;;;0.64;100.00
4814;BME280;15375;48.540;9.268;2023-01-31T05:25:43;98325.38;;;0.65;100.00
4814;BME280;15375;48.540;9.268;2023-01-31T05:28:09;98330.09;;;0.69;100.00
4814;BME280;15375;48.540;9.268;2023-01-31T05:30:35;98332.78;;;0.69;100.00
4814;BME280;15375;48.540;9.268;2023-01-31T05:33:01;98314.19;;;0.63;100.00
4814;BME280;15375;48.540;9.268;2023-01-31T05:35:26;98300.97;;;0.58;100.00
4814;BME280;15375;48.540;9.268;2023-01-31T05:37:53;98286.28;;;0.56;100.00
4814;BME280;15375;48.540;9.268;2023-01-31T05:40:19;98326.81;;;0.84;100.00
4814;BME280;15375;48.540;9.268;2023-01-31T05:42:44;98313.13;;;0.77;100.00
4814;BME280;15375;48.540;9.268;2023-01-31T05:45:10;98308.41;;;0.74;100.00
4814;BME280;15375;48.540;9.268;2023-01-31T05:47:36;98324.91;;;0.84;100.00
4814;BME280;15375;48.540;9.268;2023-01-31T05:50:01;98321.22;;;0.89;100.00
4814;BME280;15375;48.540;9.268;2023-01-31T05:52:27;98300.34;;;0.74;100.00
4814;BME280;15375;48.540;9.268;2023-01-31T05:54:55;98317.75;;;0.88;100.00
4814;BME280;15375;48.540;9.268;2023-01-31T05:57:21;98294.69;;;0.75;100.00
4814;BME280;15375;48.540;9.268;2023-01-31T05:59:46;98314.31;;;0.88;100.00
4814;BME280;15375;48.540;9.268;2023-01-31T06:02:12;98340.22;;;1.04;100.00
4814;BME280;15375;48.540;9.268;2023-01-31T06:04:37;98297.03;;;0.77;100.00
4814;BME280;15375;48.540;9.268;2023-01-31T06:07:03;98310.06;;;0.99;100.00
4814;BME280;15375;48.540;9.268;2023-01-31T06:09:28;98315.34;;;0.95;100.00
4814;BME280;15375;48.540;9.268;2023-01-31T06:11:54;98306.03;;;0.93;100.00
4814;BME280;15375;48.540;9.268;2023-01-31T06:14:20;98337.44;;;1.13;100.00
4814;BME280;15375;48.540;9.268;2023-01-31T06:16:45;98314.56;;;0.95;100.00
4814;BME280;15375;48.540;9.268;2023-01-31T06:19:10;98302.56;;;0.92;100.00
4814;BME280;15375;48.540;9.268;2023-01-31T06:21:36;98325.00;;;1.08;100.00
4814;BME280;15375;48.540;9.268;2023-01-31T06:24:01;98296.03;;;0.81;100.00
4814;BME280;15375;48.540;9.268;2023-01-31T06:26:27;98322.72;;;0.98;100.00
4814;BME280;15375;48.540;9.268;2023-01-31T06:28:52;98332.16;;;1.04;100.00
4814;BME280;15375;48.540;9.268;2023-01-31T06:31:18;98321.16;;;0.97;100.00
4814;BME280;15375;48.540;9.268;2023-01-31T06:33:43;98334.78;;;0.92;100.00
4814;BME280;15375;48.540;9.268;2023-01-31T06:36:09;98335.09;;;0.91;100.00
4814;BME280;15375;48.540;9.268;2023-01-31T06:38:34;98322.38;;;0.88;100.00
4814;BME280;15375;48.540;9.268;2023-01-31T06:41:00;98335.91;;;0.91;100.00
4814;BME280;15375;48.540;9.268;2023-01-31T06:43:25;98332.63;;;0.86;100.00
4814;BME280;15375;48.540;9.268;2023-01-31T06:45:51;98325.66;;;0.73;100.00
4814;BME280;15375;48.540;9.268;2023-01-31T06:48:16;98351.38;;;0.94;100.00
4814;BME280;15375;48.540;9.268;2023-01-31T06:50:43;98293.00;;;0.50;100.00
4814;BME280;15375;48.540;9.268;2023-01-31T06:53:08;98345.59;;;0.84;100.00
4814;BME280;15375;48.540;9.268;2023-01-31T06:55:34;98314.97;;;0.64;100.00
4814;BME280;15375;48.540;9.268;2023-01-31T06:57:59;98355.44;;;0.80;100.00
4814;BME280;15375;48.540;9.268;2023-01-31T07:00:25;98361.47;;;0.77;100.00
4814;BME280;15375;48.540;9.268;2023-01-31T07:02:51;98281.13;;;0.30;100.00
4814;BME280;15375;48.540;9.268;2023-01-31T07:05:17;98345.22;;;0.73;100.00
4814;BME280;15375;48.540;9.268;2023-01-31T07:07:43;98347.59;;;0.75;100.00
4814;BME280;15375;48.540;9.268;2023-01-31T07:10:10;98321.97;;;0.56;100.00
4814;BME280;15375;48.540;9.268;2023-01-31T07:12:36;98335.66;;;0.63;100.00
4814;BME280;15375;48.540;9.268;2023-01-31T07:15:01;98279.56;;;0.29;100.00
4814;BME280;15375;48.540;9.268;2023-01-31T07:17:27;98266.16;;;0.29;100.00
4814;BME280;15375;48.540;9.268;2023-01-31T07:19:52;98278.59;;;0.34;100.00
4814;BME280;15375;48.540;9.268;2023-01-31T07:22:18;98295.19;;;0.48;100.00
4814;BME280;15375;48.540;9.268;2023-01-31T07:24:44;98347.03;;;1.02;100.00
4814;BME280;15375;48.540;9.268;2023-01-31T07:27:12;98339.31;;;1.00;100.00
4814;BME280;15375;48.540;9.268;2023-01-31T07:29:38;98326.09;;;0.95;100.00
4814;BME280;15375;48.540;9.268;2023-01-31T07:32:03;98318.84;;;1.08;100.00
4814;BME280;15375;48.540;9.268;2023-01-31T07:34:29;98319.75;;;1.12;100.00
4814;BME280;15375;48.540;9.268;2023-01-31T07:36:55;98310.91;;;1.11;100.00
4814;BME280;15375;48.540;9.268;2023-01-31T07:39:20;98288.75;;;1.14;100.00
4814;BME280;15375;48.540;9.268;2023-01-31T07:41:45;98314.44;;;1.36;100.00
4814;BME280;15375;48.540;9.268;2023-01-31T07:44:11;98306.56;;;1.31;100.00
4814;BME280;15375;48.540;9.268;2023-01-31T07:46:36;98319.50;;;1.50;100.00
4814;BME280;15375;48.540;9.268;2023-01-31T07:49:02;98347.66;;;1.76;100.00
4814;BME280;15375;48.540;9.268;2023-01-31T07:51:27;98350.69;;;1.87;100.00
4814;BME280;15375;48.540;9.268;2023-01-31T07:53:53;98310.56;;;1.82;100.00
4814;BME280;15375;48.540;9.268;2023-01-31T07:56:19;98350.69;;;2.23;100.00
4814;BME280;15375;48.540;9.268;2023-01-31T07:58:47;98266.88;;;1.73;100.00
4814;BME280;15375;48.540;9.268;2023-01-31T08:01:23;98269.22;;;1.74;100.00
4814;BME280;15375;48.540;9.268;2023-01-31T08:04:11;98338.47;;;2.02;100.00
4814;BME280;15375;48.540;9.268;2023-01-31T08:06:38;98352.94;;;2.21;100.00
4814;BME280;15375;48.540;9.268;2023-01-31T08:09:04;98348.78;;;2.24;100.00
4814;BME280;15375;48.540;9.268;2023-01-31T08:11:29;98321.34;;;2.06;100.00
4814;BME280;15375;48.540;9.268;2023-01-31T08:13:55;98336.88;;;2.25;100.00
4814;BME280;15375;48.540;9.268;2023-01-31T08:16:20;98344.50;;;2.35;100.00
4814;BME280;15375;48.540;9.268;2023-01-31T08:18:51;98333.88;;;2.26;100.00
4814;BME280;15375;48.540;9.268;2023-01-31T08:21:17;98344.00;;;2.57;100.00
4814;BME280;15375;48.540;9.268;2023-01-31T08:23:43;98313.78;;;2.76;100.00
4814;BME280;15375;48.540;9.268;2023-01-31T08:26:16;98335.25;;;3.43;100.00
4814;BME280;15375;48.540;9.268;2023-01-31T08:28:43;98340.06;;;3.50;96.22
4814;BME280;15375;48.540;9.268;2023-01-31T08:31:16;98341.38;;;3.87;94.86
4814;BME280;15375;48.540;9.268;2023-01-31T08:33:42;98321.06;;;4.09;90.94
4814;BME280;15375;48.540;9.268;2023-01-31T08:36:28;98332.97;;;4.23;89.50
4814;BME280;15375;48.540;9.268;2023-01-31T08:38:56;98318.38;;;4.43;86.97
4814;BME280;15375;48.540;9.268;2023-01-31T08:41:24;98320.69;;;4.61;84.36
4814;BME280;15375;48.540;9.268;2023-01-31T08:43:50;98343.63;;;5.05;83.56
4814;BME280;15375;48.540;9.268;2023-01-31T08:46:16;98318.16;;;5.06;83.01
4814;BME280;15375;48.540;9.268;2023-01-31T08:48:42;98342.00;;;5.42;81.26
4814;BME280;15375;48.540;9.268;2023-01-31T08:51:09;98338.13;;;5.21;79.82
4814;BME280;15375;48.540;9.268;2023-01-31T08:53:40;98346.38;;;5.28;80.81
4814;BME280;15375;48.540;9.268;2023-01-31T08:56:06;98318.28;;;5.77;78.95
4814;BME280;15375;48.540;9.268;2023-01-31T08:58:35;98335.44;;;5.21;78.91
4814;BME280;15375;48.540;9.268;2023-01-31T09:01:15;98311.03;;;4.98;80.91
4814;BME280;15375;48.540;9.268;2023-01-31T09:03:41;98307.13;;;5.37;79.63
4814;BME280;15375;48.540;9.268;2023-01-31T09:06:11;98302.63;;;5.03;80.46
4814;BME280;15375;48.540;9.268;2023-01-31T09:08:38;98295.50;;;4.37;83.02
4814;BME280;15375;48.540;9.268;2023-01-31T09:11:03;98299.41;;;3.90;84.06
4814;BME280;15375;48.540;9.268;2023-01-31T09:13:29;98297.25;;;3.79;86.78
4814;BME280;15375;48.540;9.268;2023-01-31T09:16:03;98319.53;;;3.92;87.97
4814;BME280;15375;48.540;9.268;2023-01-31T09:18:29;98311.34;;;3.73;88.57
4814;BME280;15375;48.540;9.268;2023-01-31T09:20:55;98326.13;;;3.63;89.43
4814;BME280;15375;48.540;9.268;2023-01-31T09:23:21;98333.97;;;3.84;89.28
4814;BME280;15375;48.540;9.268;2023-01-31T09:25:55;98308.63;;;3.88;88.35
4814;BME280;15375;48.540;9.268;2023-01-31T09:28:22;98302.53;;;3.60;89.19
4814;BME280;15375;48.540;9.268;2023-01-31T09:30:48;98320.91;;;3.86;89.07
4814;BME280;15375;48.540;9.268;2023-01-31T09:33:14;98319.75;;;4.18;88.67
4814;BME280;15375;48.540;9.268;2023-01-31T09:35:39;98323.56;;;4.33;85.26
4814;BME280;15375;48.540;9.268;2023-01-31T09:38:05;98333.63;;;4.51;84.47
4814;BME280;15375;48.540;9.268;2023-01-31T09:40:31;98338.97;;;4.32;85.19
4814;BME280;15375;48.540;9.268;2023-01-31T09:43:01;98280.50;;;4.05;84.94
4814;BME280;15375;48.540;9.268;2023-01-31T09:45:34;98332.63;;;4.25;84.97
4814;BME280;15375;48.540;9.268;2023-01-31T09:48:01;98292.88;;;3.91;85.05
4814;BME280;15375;48.540;9.268;2023-01-31T09:50:39;98319.47;;;4.23;84.15
4814;BME280;15375;48.540;9.268;2023-01-31T09:53:12;98311.69;;;4.37;84.69
4814;BME280;15375;48.540;9.268;2023-01-31T10:01:20;98331.31;;;4.34;83.71
4814;BME280;15375;48.540;9.268;2023-01-31T10:06:53;98298.31;;;4.25;83.22
4814;BME280;15375;48.540;9.268;2023-01-31T10:14:46;98287.34;;;4.53;81.46
4814;BME280;15375;48.540;9.268;2023-01-31T10:22:37;98298.88;;;4.88;80.05
4814;BME280;15375;48.540;9.268;2023-01-31T10:25:31;98310.75;;;4.65;79.80
4814;BME280;15375;48.540;9.268;2023-01-31T10:28:07;98307.63;;;4.82;80.14
4814;BME280;15375;48.540;9.268;2023-01-31T10:30:43;98305.34;;;5.03;79.37
4814;BME280;15375;48.540;9.268;2023-01-31T10:33:24;98308.75;;;5.00;79.68
4814;BME280;15375;48.540;9.268;2023-01-31T10:35:55;98315.38;;;5.02;77.83
4814;BME280;15375;48.540;9.268;2023-01-31T10:38:27;98314.88;;;5.16;78.22
4814;BME280;15375;48.540;9.268;2023-01-31T10:44:09;98300.28;;;5.01;76.71
4814;BME280;15375;48.540;9.268;2023-01-31T10:46:37;98276.63;;;4.76;76.52
4814;BME280;15375;48.540;9.268;2023-01-31T10:49:03;98295.31;;;4.84;76.06
4814;BME280;15375;48.540;9.268;2023-01-31T10:55:01;98275.25;;;5.27;76.21
4814;BME280;15375;48.540;9.268;2023-01-31T10:57:25;98277.28;;;6.02;71.96
4814;BME280;15375;48.540;9.268;2023-01-31T10:59:52;98273.13;;;6.34;70.97
4814;BME280;15375;48.540;9.268;2023-01-31T11:02:27;98255.69;;;6.61;68.92
4814;BME280;15375;48.540;9.268;2023-01-31T11:04:56;98235.72;;;6.76;67.60
4814;BME280;15375;48.540;9.268;2023-01-31T11:07:22;98254.31;;;7.11;67.13
4814;BME280;15375;48.540;9.268;2023-01-31T11:09:50;98244.69;;;7.17;66.28
4814;BME280;15375;48.540;9.268;2023-01-31T11:12:21;98239.84;;;7.37;64.95
4814;BME280;15375;48.540;9.268;2023-01-31T11:15:10;98248.75;;;7.00;65.33
4814;BME280;15375;48.540;9.268;2023-01-31T11:17:39;98261.09;;;6.61;66.82
4814;BME280;15375;48.540;9.268;2023-01-31T11:20:20;98269.78;;;6.77;67.00
4814;BME280;15375;48.540;9.268;2023-01-31T11:22:46;98288.94;;;6.32;67.23
4814;BME280;15375;48.540;9.268;2023-01-31T11:25:19;98275.41;;;6.32;68.95
4814;BME280;15375;48.540;9.268;2023-01-31T11:27:46;98273.59;;;6.69;70.48
4814;BME280;15375;48.540;9.268;2023-01-31T11:30:31;98250.91;;;7.21;66.16
4814;BME280;15375;48.540;9.268;2023-01-31T11:32:59;98214.06;;;7.64;64.31
4814;BME280;15375;48.540;9.268;2023-01-31T11:38:19;98217.38;;;7.40;63.85
4814;BME280;15375;48.540;9.268;2023-01-31T11:40:41;98239.25;;;6.80;67.68
4814;BME280;15375;48.540;9.268;2023-01-31T11:45:42;98233.56;;;6.29;72.27
4814;BME280;15375;48.540;9.268;2023-01-31T11:48:16;98226.25;;;6.63;69.63
4814;BME280;15375;48.540;9.268;2023-01-31T11:50:44;98228.91;;;6.56;68.24
4814;BME280;15375;48.540;9.268;2023-01-31T11:55:42;98244.75;;;5.98;71.77
4814;BME280;15375;48.540;9.268;2023-01-31T11:58:32;98229.31;;;5.99;70.33
4814;BME280;15375;48.540;9.268;2023-01-31T12:01:15;98226.91;;;5.94;71.05
4814;BME280;15375;48.540;9.268;2023-01-31T12:03:50;98227.66;;;5.94;72.67
4814;BME280;15375;48.540;9.268;2023-01-31T12:07:04;98215.13;;;6.09;72.19
4814;BME280;15375;48.540;9.268;2023-01-31T12:09:41;98210.06;;;6.07;73.96
4814;BME280;15375;48.540;9.268;2023-01-31T12:14:46;98191.72;;;5.71;75.28
4814;BME280;15375;48.540;9.268;2023-01-31T12:17:14;98170.09;;;5.71;74.35
4814;BME280;15375;48.540;9.268;2023-01-31T12:19:55;98215.22;;;5.90;73.38
4814;BME280;15375;48.540;9.268;2023-01-31T12:25:27;98211.53;;;5.52;73.90
4814;BME280;15375;48.540;9.268;2023-01-31T12:28:20;98208.53;;;5.57;74.36
4814;BME280;15375;48.540;9.268;2023-01-31T12:31:21;98214.44;;;5.40;76.56
4814;BME280;15375;48.540;9.268;2023-01-31T12:44:43;98195.94;;;5.68;75.45
4814;BME280;15375;48.540;9.268;2023-01-31T12:57:53;98122.91;;;5.72;74.02
4814;BME280;15375;48.540;9.268;2023-01-31T13:00:35;98143.38;;;5.96;74.85
4814;BME280;15375;48.540;9.268;2023-01-31T13:05:55;98135.00;;;5.52;74.11
4814;BME280;15375;48.540;9.268;2023-01-31T13:08:27;98134.19;;;5.51;75.19
4814;BME280;15375;48.540;9.268;2023-01-31T13:11:14;98132.53;;;5.17;75.80
4814;BME280;15375;48.540;9.268;2023-01-31T13:13:51;98128.19;;;5.35;76.81
4814;BME280;15375;48.540;9.268;2023-01-31T13:16:30;98109.56;;;5.30;76.38
4814;BME280;15375;48.540;9.268;2023-01-31T13:19:06;98122.16;;;5.45;76.52
4814;BME280;15375;48.540;9.268;2023-01-31T13:21:41;98136.13;;;5.25;77.35
4814;BME280;15375;48.540;9.268;2023-01-31T13:24:11;98112.47;;;5.18;77.00
4814;BME280;15375;48.540;9.268;2023-01-31T13:27:27;98124.84;;;5.45;77.16
4814;BME280;15375;48.540;9.268;2023-01-31T13:30:00;98125.56;;;5.42;76.68
4814;BME280;15375;48.540;9.268;2023-01-31T13:34:56;98129.53;;;5.48;77.56
4814;BME280;15375;48.540;9.268;2023-01-31T13:37:23;98130.25;;;5.45;77.42
4814;BME280;15375;48.540;9.268;2023-01-31T13:39:58;98107.97;;;5.03;76.44
4814;BME280;15375;48.540;9.268;2023-01-31T13:42:25;98086.25;;;4.96;76.61
4814;BME280;15375;48.540;9.268;2023-01-31T13:44:53;98093.00;;;5.09;77.89
4814;BME280;15375;48.540;9.268;2023-01-31T13:47:39;98109.28;;;5.12;79.69
4814;BME280;15375;48.540;9.268;2023-01-31T13:50:30;98098.41;;;5.09;79.39
4814;BME280;15375;48.540;9.268;2023-01-31T13:52:59;98095.28;;;5.07;77.83
4814;BME280;15375;48.540;9.268;2023-01-31T13:55:38;98094.34;;;4.96;77.88
4814;BME280;15375;48.540;9.268;2023-01-31T13:58:15;98102.56;;;4.80;80.33
4814;BME280;15375;48.540;9.268;2023-01-31T14:00:44;98108.78;;;4.81;80.80
4814;BME280;15375;48.540;9.268;2023-01-31T14:03:19;98113.38;;;4.80;81.14
4814;BME280;15375;48.540;9.268;2023-01-31T14:05:56;98112.81;;;4.71;81.05
4814;BME280;15375;48.540;9.268;2023-01-31T14:13:44;98116.41;;;4.56;78.92
4814;BME280;15375;48.540;9.268;2023-01-31T14:22:02;98125.25;;;4.34;81.27
4814;BME280;15375;48.540;9.268;2023-01-31T14:27:30;98142.47;;;4.26;83.72
4814;BME280;15375;48.540;9.268;2023-01-31T14:51:24;98116.41;;;4.14;82.80
4814;BME280;15375;48.540;9.268;2023-01-31T14:56:53;98099.50;;;4.17;83.22
4814;BME280;15375;48.540;9.268;2023-01-31T14:59:31;98098.00;;;4.20;82.55
4814;BME280;15375;48.540;9.268;2023-01-31T15:01:58;98097.22;;;4.19;82.62
4814;BME280;15375;48.540;9.268;2023-01-31T15:04:27;98095.50;;;4.11;83.72
4814;BME280;15375;48.540;9.268;2023-01-31T15:06:53;98096.00;;;4.17;85.03
4814;BME280;15375;48.540;9.268;2023-01-31T15:11:52;98079.41;;;4.15;83.65
4814;BME280;15375;48.540;9.268;2023-01-31T15:17:13;98078.59;;;4.14;83.67
4814;BME280;15375;48.540;9.268;2023-01-31T15:19:45;98082.00;;;4.11;83.54
4814;BME280;15375;48.540;9.268;2023-01-31T15:22:12;98080.31;;;4.03;84.21
4814;BME280;15375;48.540;9.268;2023-01-31T15:24:43;98078.81;;;4.06;85.22
4814;BME280;15375;48.540;9.268;2023-01-31T15:32:33;98058.94;;;3.95;84.94
4814;BME280;15375;48.540;9.268;2023-01-31T15:35:21;98075.69;;;4.04;84.80
4814;BME280;15375;48.540;9.268;2023-01-31T15:37:54;98067.88;;;3.99;84.27
4814;BME280;15375;48.540;9.268;2023-01-31T15:40:22;98081.47;;;4.02;83.30
4814;BME280;15375;48.540;9.268;2023-01-31T15:42:50;98091.38;;;3.98;84.34
4814;BME280;15375;48.540;9.268;2023-01-31T15:48:14;98125.50;;;4.06;84.10
4814;BME280;15375;48.540;9.268;2023-01-31T15:50:53;98118.38;;;3.98;84.28
4814;BME280;15375;48.540;9.268;2023-01-31T15:53:22;98133.88;;;4.01;85.17
4814;BME280;15375;48.540;9.268;2023-01-31T15:55:49;98147.78;;;4.03;85.62